createdAt,value
2022-09-14T00:01:40.033Z,3.60
2022-09-14T00:04:13.898Z,3.53
2022-09-14T00:06:42.410Z,3.13
2022-09-14T00:09:15.261Z,3.20
2022-09-14T00:11:43.213Z,3.10
2022-09-14T00:14:11.208Z,3.60
2022-09-14T00:16:41.021Z,3.78
2022-09-14T00:19:17.979Z,3.75
2022-09-14T00:21:46.116Z,3.45
2022-09-14T00:24:13.930Z,3.25
2022-09-14T00:26:41.848Z,3.63
2022-09-14T00:29:10.014Z,3.55
2022-09-14T00:31:39.295Z,3.15
2022-09-14T00:34:09.665Z,3.53
2022-09-14T00:36:47.313Z,3.03
2022-09-14T00:39:16.480Z,3.72
2022-09-14T00:41:46.011Z,3.42
2022-09-14T00:44:13.733Z,3.53
2022-09-14T00:46:42.960Z,3.50
2022-09-14T00:49:32.765Z,3.33
2022-09-14T00:52:32.699Z,3.08
2022-09-14T00:55:07.233Z,3.53
2022-09-14T00:57:45.036Z,2.85
2022-09-14T01:00:16.135Z,3.30
2022-09-14T01:02:44.439Z,3.10
2022-09-14T01:05:13.330Z,2.85
2022-09-14T01:07:47.227Z,2.95
2022-09-14T01:10:59.653Z,2.70
2022-09-14T01:13:51.916Z,2.97
2022-09-14T01:16:45.081Z,3.10
2022-09-14T01:19:40.468Z,2.80
2022-09-14T01:22:18.982Z,3.40
2022-09-14T01:24:53.180Z,3.00
2022-09-14T01:27:26.691Z,2.90
2022-09-14T01:30:06.873Z,3.00
2022-09-14T01:33:05.994Z,2.40
2022-09-14T01:35:46.310Z,3.03
2022-09-14T01:38:38.949Z,3.03
2022-09-14T01:41:11.941Z,2.67
2022-09-14T01:43:51.635Z,2.45
2022-09-14T01:46:23.762Z,2.55
2022-09-14T01:49:09.152Z,3.50
2022-09-14T01:51:50.019Z,3.03
2022-09-14T01:54:40.094Z,2.67
2022-09-14T01:57:16.708Z,2.67
2022-09-14T01:59:46.493Z,2.90
2022-09-14T02:02:21.230Z,2.67
2022-09-14T02:05:15.688Z,2.67
2022-09-14T02:07:43.683Z,2.67
2022-09-14T02:10:15.157Z,2.38
2022-09-14T02:12:43.860Z,2.20
2022-09-14T02:15:13.711Z,2.45
2022-09-14T02:17:42.473Z,2.88
2022-09-14T02:20:21.507Z,2.50
2022-09-14T02:22:51.215Z,2.58
2022-09-14T02:25:20.538Z,2.70
2022-09-14T02:27:48.998Z,2.55
2022-09-14T02:30:20.581Z,2.47
2022-09-14T02:33:25.497Z,2.67
2022-09-14T02:35:56.267Z,2.33
2022-09-14T02:38:28.166Z,2.50
2022-09-14T02:41:03.767Z,2.25
2022-09-14T02:43:42.780Z,2.17
2022-09-14T02:46:19.115Z,2.15
2022-09-14T02:49:12.358Z,2.30
2022-09-14T02:51:48.153Z,2.83
2022-09-14T02:54:21.984Z,2.55
2022-09-14T02:56:50.029Z,2.67
2022-09-14T02:59:18.668Z,2.35
2022-09-14T03:01:46.592Z,2.38
2022-09-14T03:04:14.654Z,2.10
2022-09-14T03:06:42.386Z,2.10
2022-09-14T03:09:10.261Z,2.33
2022-09-14T03:11:38.555Z,2.03
2022-09-14T03:14:06.509Z,1.92
2022-09-14T03:16:34.323Z,2.08
2022-09-14T03:19:02.164Z,2.30
2022-09-14T03:21:29.926Z,2.03
2022-09-14T03:23:58.250Z,2.40
2022-09-14T03:26:28.920Z,2.20
2022-09-14T03:28:58.667Z,2.20
2022-09-14T03:31:27.042Z,2.63
2022-09-14T03:34:00.027Z,2.50
2022-09-14T03:36:30.312Z,2.30
2022-09-14T03:39:00.168Z,2.28
2022-09-14T03:41:28.643Z,2.30
2022-09-14T03:43:56.471Z,2.63
2022-09-14T03:46:25.526Z,2.35
2022-09-14T03:48:55.481Z,2.30
2022-09-14T03:51:23.677Z,2.70
2022-09-14T03:53:51.477Z,2.55
2022-09-14T03:56:21.397Z,2.67
2022-09-14T03:58:50.285Z,2.13
2022-09-14T04:01:20.670Z,2.33
2022-09-14T04:03:49.398Z,2.40
2022-09-14T04:06:18.921Z,2.58
2022-09-14T04:08:47.367Z,2.33
2022-09-14T04:11:18.314Z,3.00
2022-09-14T04:13:47.368Z,2.83
2022-09-14T04:16:17.366Z,2.60
2022-09-14T04:18:45.326Z,2.60
2022-09-14T04:21:18.942Z,2.60
2022-09-14T04:24:12.864Z,2.60
2022-09-14T04:26:35.535Z,2.38
2022-09-14T04:29:03.677Z,2.83
2022-09-14T04:31:33.249Z,2.97
2022-09-14T04:34:01.143Z,2.63
2022-09-14T04:36:30.988Z,2.95
2022-09-14T04:39:02.323Z,2.80
2022-09-14T04:41:31.305Z,3.15
2022-09-14T04:44:00.502Z,2.72
2022-09-14T04:46:31.344Z,2.90
2022-09-14T04:48:59.620Z,3.13
2022-09-14T04:51:29.776Z,3.33
2022-09-14T04:53:59.467Z,3.75
2022-09-14T04:56:29.094Z,3.55
2022-09-14T04:58:59.399Z,3.70
2022-09-14T05:01:29.530Z,3.60
2022-09-14T05:03:57.700Z,3.80
2022-09-14T05:06:28.133Z,3.75
2022-09-14T05:08:57.087Z,3.53
2022-09-14T05:11:27.449Z,3.30
2022-09-14T05:13:57.318Z,3.42
2022-09-14T05:16:26.741Z,3.05
2022-09-14T05:18:57.297Z,3.00
2022-09-14T05:21:25.644Z,2.90
2022-09-14T05:23:58.766Z,2.80
2022-09-14T05:26:28.549Z,2.80
2022-09-14T05:28:58.653Z,2.90
2022-09-14T05:31:28.349Z,2.80
2022-09-14T05:33:56.774Z,2.83
2022-09-14T05:36:25.420Z,3.05
2022-09-14T05:38:53.314Z,3.22
2022-09-14T05:41:21.039Z,3.30
2022-09-14T05:43:48.809Z,3.20
2022-09-14T05:46:21.271Z,2.75
2022-09-14T05:48:51.663Z,2.88
2022-09-14T05:51:22.492Z,2.55
2022-09-14T05:53:51.844Z,3.17
2022-09-14T05:56:20.769Z,2.63
2022-09-14T05:58:48.967Z,3.15
2022-09-14T06:01:22.661Z,2.78
2022-09-14T06:03:53.425Z,2.77
2022-09-14T06:06:22.039Z,2.78
2022-09-14T06:08:52.687Z,2.30
2022-09-14T06:11:29.083Z,2.50
2022-09-14T06:13:57.329Z,2.97
2022-09-14T06:16:27.297Z,2.70
2022-09-14T06:18:57.073Z,2.67
2022-09-14T06:21:29.530Z,2.63
2022-09-14T06:23:57.432Z,3.00
2022-09-14T06:26:25.954Z,2.72
2022-09-14T06:28:53.720Z,2.53
2022-09-14T06:31:25.305Z,2.75
2022-09-14T06:33:53.818Z,2.30
2022-09-14T06:36:24.472Z,2.55
2022-09-14T06:38:53.181Z,2.60
2022-09-14T06:41:26.338Z,3.08
2022-09-14T06:43:57.381Z,2.70
2022-09-14T06:46:28.583Z,2.67
2022-09-14T06:49:09.586Z,2.38
2022-09-14T06:51:39.880Z,2.97
2022-09-14T06:54:09.877Z,2.90
2022-09-14T06:56:40.419Z,2.33
2022-09-14T06:59:09.858Z,2.45
2022-09-14T07:01:38.335Z,2.55
2022-09-14T07:04:07.508Z,2.22
2022-09-14T07:06:49.892Z,2.22
2022-09-14T07:09:19.402Z,2.40
2022-09-14T07:11:47.607Z,2.90
2022-09-14T07:14:15.571Z,2.65
2022-09-14T07:16:43.332Z,2.70
2022-09-14T07:19:13.409Z,2.40
2022-09-14T07:21:42.131Z,3.00
2022-09-14T07:24:11.564Z,2.90
2022-09-14T07:26:42.228Z,2.92
2022-09-14T07:29:18.387Z,2.70
2022-09-14T07:31:48.734Z,3.17
2022-09-14T07:34:17.341Z,3.13
2022-09-14T07:36:45.897Z,3.00
2022-09-14T07:39:16.018Z,3.90
2022-09-14T07:41:44.600Z,3.20
2022-09-14T07:44:15.842Z,3.67
2022-09-14T07:46:45.328Z,3.80
2022-09-14T07:49:14.307Z,3.58
2022-09-14T07:51:42.648Z,3.40
2022-09-14T07:54:13.431Z,3.72
2022-09-14T07:56:42.353Z,4.10
2022-09-14T07:59:35.091Z,3.80
2022-09-14T08:02:02.584Z,3.33
2022-09-14T08:04:30.413Z,3.50
2022-09-14T08:06:58.342Z,3.70
2022-09-14T08:09:26.671Z,4.00
2022-09-14T08:11:54.353Z,3.83
2022-09-14T08:14:22.143Z,3.70
2022-09-14T08:16:50.118Z,3.50
2022-09-14T08:19:20.767Z,3.67
2022-09-14T08:21:48.869Z,3.50
2022-09-14T08:24:19.441Z,4.05
2022-09-14T08:26:48.314Z,3.75
2022-09-14T08:29:17.787Z,3.90
2022-09-14T08:31:47.184Z,3.58
2022-09-14T08:34:16.376Z,3.33
2022-09-14T08:36:45.975Z,3.40
2022-09-14T08:39:15.358Z,3.80
2022-09-14T08:41:51.411Z,3.53
2022-09-14T08:44:35.835Z,3.17
2022-09-14T08:47:09.804Z,2.90
2022-09-14T08:50:03.388Z,3.00
2022-09-14T08:52:36.062Z,2.67
2022-09-14T08:55:22.759Z,2.90
2022-09-14T08:58:10.177Z,3.00
2022-09-14T09:00:47.386Z,2.55
2022-09-14T09:03:36.045Z,2.67
2022-09-14T09:06:13.885Z,2.58
2022-09-14T09:09:03.049Z,3.13
2022-09-14T09:11:41.432Z,3.58
2022-09-14T09:14:35.228Z,3.00
2022-09-14T09:17:11.559Z,2.55
2022-09-14T09:20:06.063Z,3.03
2022-09-14T09:22:50.320Z,2.88
2022-09-14T09:25:26.688Z,2.92
2022-09-14T09:28:02.886Z,3.13
2022-09-14T09:30:31.056Z,2.78
2022-09-14T09:32:58.952Z,2.95
2022-09-14T09:35:53.365Z,2.60
2022-09-14T09:38:27.496Z,2.80
2022-09-14T09:41:11.818Z,3.33
2022-09-14T09:44:03.321Z,2.58
2022-09-14T09:46:38.402Z,3.50
2022-09-14T09:49:34.894Z,3.00
2022-09-14T09:52:18.065Z,2.85
2022-09-14T09:54:54.141Z,3.08
2022-09-14T09:57:23.691Z,2.92
2022-09-14T09:59:51.571Z,3.25
2022-09-14T10:02:31.179Z,3.00
2022-09-14T10:05:07.232Z,2.70
2022-09-14T10:07:56.471Z,2.70
2022-09-14T10:10:36.646Z,3.05
2022-09-14T10:13:20.391Z,2.47
2022-09-14T10:15:49.824Z,3.10
2022-09-14T10:18:19.024Z,2.60
2022-09-14T10:21:07.621Z,2.58
2022-09-14T10:23:38.439Z,2.47
2022-09-14T10:26:19.755Z,2.42
2022-09-14T10:28:49.630Z,2.22
2022-09-14T10:31:27.052Z,2.40
2022-09-14T10:33:56.696Z,2.10
2022-09-14T10:36:24.537Z,2.35
2022-09-14T10:38:58.401Z,2.00
2022-09-14T10:41:39.985Z,1.77
2022-09-14T10:44:34.918Z,1.80
2022-09-14T10:47:21.520Z,1.90
2022-09-14T10:49:54.784Z,1.67
2022-09-14T10:52:47.426Z,1.88
2022-09-14T10:55:18.750Z,1.88
2022-09-14T10:58:22.498Z,1.67
2022-09-14T11:03:46.169Z,1.70
2022-09-14T11:06:28.146Z,1.63
2022-09-14T11:09:03.185Z,1.75
2022-09-14T11:11:36.427Z,1.70
2022-09-14T11:14:28.405Z,1.63
2022-09-14T11:17:34.298Z,1.50
2022-09-14T11:20:26.346Z,1.65
2022-09-14T11:23:24.716Z,1.63
2022-09-14T11:26:10.586Z,1.70
2022-09-14T11:28:43.487Z,1.70
2022-09-14T11:31:21.191Z,1.80
2022-09-14T11:34:00.305Z,1.42
2022-09-14T11:36:41.497Z,1.40
2022-09-14T11:39:21.437Z,1.38
2022-09-14T11:41:54.633Z,1.48
2022-09-14T11:44:38.513Z,1.60
2022-09-14T11:47:13.229Z,1.30
2022-09-14T11:50:10.640Z,1.58
2022-09-14T11:52:38.457Z,1.27
2022-09-14T11:55:15.292Z,1.48
2022-09-14T11:57:46.468Z,1.35
2022-09-14T12:00:30.735Z,1.30
2022-09-14T12:03:26.735Z,1.30
2022-09-14T12:05:54.615Z,1.48
2022-09-14T12:08:28.813Z,1.27
2022-09-14T12:11:22.524Z,1.23
2022-09-14T12:13:58.264Z,1.50
2022-09-14T12:16:26.138Z,1.48
2022-09-14T12:18:57.385Z,1.88
2022-09-14T12:21:25.972Z,1.27
2022-09-14T12:23:57.693Z,1.10
2022-09-14T12:26:32.846Z,1.50
2022-09-14T12:29:06.352Z,1.23
2022-09-14T12:31:39.775Z,1.23
2022-09-14T12:34:13.840Z,1.55
2022-09-14T12:36:41.714Z,1.30
2022-09-14T12:39:23.593Z,1.40
2022-09-14T12:41:58.655Z,1.25
2022-09-14T12:44:41.027Z,1.20
2022-09-14T12:47:24.166Z,1.40
2022-09-14T12:49:53.845Z,1.30
2022-09-14T12:52:50.499Z,1.45
2022-09-14T12:55:34.057Z,1.63
2022-09-14T12:58:33.030Z,1.15
2022-09-14T13:01:17.322Z,1.40
2022-09-14T13:03:55.995Z,1.33
2022-09-14T13:06:28.474Z,1.20
2022-09-14T13:08:59.083Z,1.45
2022-09-14T13:11:35.522Z,1.80
2022-09-14T13:14:03.696Z,1.23
2022-09-14T13:16:36.051Z,1.13
2022-09-14T13:19:10.091Z,1.15
2022-09-14T13:21:50.182Z,1.33
2022-09-14T13:24:45.051Z,1.50
2022-09-14T13:27:27.735Z,1.38
2022-09-14T13:30:07.870Z,1.80
2022-09-14T13:32:39.623Z,1.42
2022-09-14T13:35:15.597Z,1.30
2022-09-14T13:37:48.069Z,1.50
2022-09-14T13:40:16.965Z,1.35
2022-09-14T13:42:45.798Z,1.30
2022-09-14T13:45:13.769Z,1.50
2022-09-14T13:47:42.257Z,1.40
2022-09-14T13:50:13.530Z,1.38
2022-09-14T13:53:02.387Z,1.60
2022-09-14T13:55:43.814Z,1.40
2022-09-14T13:58:11.541Z,1.50
2022-09-14T14:00:55.754Z,1.52
2022-09-14T14:03:34.393Z,1.60
2022-09-14T14:06:17.692Z,1.50
2022-09-14T14:08:51.575Z,1.27
2022-09-14T14:11:32.589Z,1.50
2022-09-14T14:14:20.930Z,1.60
2022-09-14T14:17:21.131Z,1.60
2022-09-14T14:19:53.489Z,1.42
2022-09-14T14:22:27.000Z,1.80
2022-09-14T14:25:12.700Z,1.60
2022-09-14T14:27:46.875Z,1.80
2022-09-14T14:30:20.351Z,1.52
2022-09-14T14:32:52.543Z,1.50
2022-09-14T14:35:23.722Z,1.55
2022-09-14T14:37:52.104Z,1.45
2022-09-14T14:40:20.485Z,1.50
2022-09-14T14:42:49.731Z,1.50
2022-09-14T14:45:22.340Z,1.50
2022-09-14T14:47:50.676Z,1.75
2022-09-14T14:50:26.083Z,1.52
2022-09-14T14:52:54.469Z,1.50
2022-09-14T14:55:24.062Z,1.70
2022-09-14T14:57:53.503Z,1.60
2022-09-14T15:00:23.966Z,1.33
2022-09-14T15:02:52.083Z,1.40
2022-09-14T15:05:20.060Z,1.48
2022-09-14T15:07:49.721Z,1.80
2022-09-14T15:10:18.304Z,1.80
2022-09-14T15:12:46.504Z,1.70
2022-09-14T15:15:17.186Z,1.60
2022-09-14T15:17:45.211Z,1.30
2022-09-14T15:20:13.806Z,1.38
2022-09-14T15:22:42.360Z,1.40
2022-09-14T15:25:11.699Z,1.60
2022-09-14T15:27:40.578Z,1.63
2022-09-14T15:30:10.418Z,1.50
2022-09-14T15:32:39.136Z,1.30
2022-09-14T15:35:09.105Z,1.27
2022-09-14T15:37:37.001Z,1.40
2022-09-14T15:40:06.029Z,1.45
2022-09-14T15:42:33.960Z,1.40
2022-09-14T15:45:01.785Z,1.25
2022-09-14T15:47:32.881Z,1.40
2022-09-14T15:50:05.022Z,1.20
2022-09-14T15:52:36.259Z,1.17
2022-09-14T15:55:06.640Z,1.15
2022-09-14T15:57:34.683Z,1.15
2022-09-14T16:00:05.289Z,1.15
2022-09-14T16:02:41.223Z,1.15
2022-09-14T16:05:09.978Z,1.00
2022-09-14T16:07:38.342Z,1.25
2022-09-14T16:10:06.717Z,1.13
2022-09-14T16:12:34.532Z,1.58
2022-09-14T16:15:02.451Z,1.20
2022-09-14T16:17:30.208Z,1.10
2022-09-14T16:19:57.899Z,1.33
2022-09-14T16:22:25.749Z,1.92
2022-09-14T16:24:53.460Z,1.70
2022-09-14T16:27:21.870Z,2.10
2022-09-14T16:29:49.628Z,2.00
2022-09-14T16:32:17.427Z,2.08
2022-09-14T16:34:45.179Z,2.13
2022-09-14T16:37:13.133Z,2.05
2022-09-14T16:39:43.300Z,1.70
2022-09-14T16:42:11.171Z,1.23
2022-09-14T16:44:41.274Z,1.00
2022-09-14T16:47:09.758Z,0.95
2022-09-14T16:49:39.302Z,1.25
2022-09-14T16:52:07.743Z,0.88
2022-09-14T16:54:35.967Z,0.80
2022-09-14T16:57:04.060Z,0.85
2022-09-14T16:59:31.909Z,0.90
2022-09-14T17:01:59.761Z,0.80
2022-09-14T17:04:28.873Z,0.80
2022-09-14T17:06:56.835Z,1.00
2022-09-14T17:09:28.426Z,0.90
2022-09-14T17:11:57.812Z,1.00
2022-09-14T17:14:28.832Z,0.90
2022-09-14T17:16:58.970Z,1.08
2022-09-14T17:19:27.642Z,0.90
2022-09-14T17:21:55.794Z,0.93
2022-09-14T17:24:24.095Z,1.00
2022-09-14T17:26:51.880Z,0.90
2022-09-14T17:29:19.721Z,0.90
2022-09-14T17:31:48.014Z,0.88
2022-09-14T17:34:17.169Z,0.90
2022-09-14T17:36:45.639Z,1.20
2022-09-14T17:39:15.189Z,0.80
2022-09-14T17:41:43.959Z,1.05
2022-09-14T17:44:13.732Z,0.90
2022-09-14T17:46:51.204Z,0.90
2022-09-14T17:49:21.816Z,0.90
2022-09-14T17:51:50.727Z,0.90
2022-09-14T17:54:19.579Z,0.80
2022-09-14T17:56:48.738Z,0.95
2022-09-14T17:59:24.026Z,0.98
2022-09-14T18:01:51.878Z,1.05
2022-09-14T18:04:19.790Z,1.05
2022-09-14T18:06:50.156Z,1.08
2022-09-14T18:09:23.055Z,1.00
2022-09-14T18:11:56.596Z,1.20
2022-09-14T18:14:24.955Z,1.20
2022-09-14T18:16:52.675Z,1.30
2022-09-14T18:19:20.654Z,1.20
2022-09-14T18:21:52.389Z,1.08
2022-09-14T18:24:21.777Z,0.75
2022-09-14T18:26:53.360Z,1.00
2022-09-14T18:29:24.553Z,1.10
2022-09-14T18:31:53.402Z,1.10
2022-09-14T18:34:25.251Z,0.98
2022-09-14T18:36:53.044Z,1.10
2022-09-14T18:39:21.978Z,1.02
2022-09-14T18:41:56.323Z,1.13
2022-09-14T18:44:24.199Z,1.20
2022-09-14T18:46:52.597Z,0.90
2022-09-14T18:49:22.727Z,1.00
2022-09-14T18:51:51.534Z,1.00
2022-09-14T18:54:24.236Z,1.10
2022-09-14T18:56:55.428Z,1.23
2022-09-14T18:59:24.496Z,1.25
2022-09-14T19:01:52.715Z,1.15
2022-09-14T19:04:20.706Z,1.05
2022-09-14T19:06:49.843Z,0.93
2022-09-14T19:09:17.809Z,1.20
2022-09-14T19:11:45.713Z,1.00
2022-09-14T19:14:15.281Z,0.93
2022-09-14T19:16:43.525Z,1.17
2022-09-14T19:19:13.999Z,1.08
2022-09-14T19:21:42.531Z,1.20
2022-09-14T19:24:14.368Z,1.17
2022-09-14T19:26:49.437Z,1.35
2022-09-14T19:29:21.843Z,1.20
2022-09-14T19:31:52.113Z,1.17
2022-09-14T19:34:21.696Z,1.05
2022-09-14T19:36:49.899Z,1.20
2022-09-14T19:39:18.345Z,1.20
2022-09-14T19:41:47.313Z,1.40
2022-09-14T19:44:15.874Z,1.85
2022-09-14T19:46:44.256Z,1.00
2022-09-14T19:49:20.561Z,1.27
2022-09-14T19:51:49.720Z,1.15
2022-09-14T19:54:17.912Z,1.55
2022-09-14T19:56:46.539Z,1.38
2022-09-14T19:59:16.245Z,1.30
2022-09-14T20:01:44.999Z,1.25
2022-09-14T20:04:13.819Z,1.10
2022-09-14T20:06:44.079Z,1.60
2022-09-14T20:09:18.298Z,1.25
2022-09-14T20:11:48.150Z,1.85
2022-09-14T20:14:21.428Z,1.23
2022-09-14T20:16:52.320Z,1.20
2022-09-14T20:19:22.564Z,1.00
2022-09-14T20:21:52.132Z,0.98
2022-09-14T20:24:28.279Z,1.50
2022-09-14T20:26:59.374Z,1.10
2022-09-14T20:29:30.507Z,1.15
2022-09-14T20:31:59.061Z,1.35
2022-09-14T20:34:28.287Z,1.13
2022-09-14T20:36:57.171Z,1.08
2022-09-14T20:39:25.140Z,1.17
2022-09-14T20:41:53.177Z,1.10
2022-09-14T20:44:22.924Z,1.38
2022-09-14T20:46:51.304Z,1.30
2022-09-14T20:49:22.000Z,1.17
2022-09-14T20:51:52.519Z,1.20
2022-09-14T20:54:20.399Z,1.55
2022-09-14T20:56:48.198Z,1.13
2022-09-14T20:59:17.775Z,1.05
2022-09-14T21:01:47.416Z,1.50
2022-09-14T21:04:20.729Z,1.15
2022-09-14T21:06:55.371Z,1.35
2022-09-14T21:11:53.843Z,1.30
2022-09-14T21:14:22.698Z,1.30
2022-09-14T21:16:55.441Z,1.38
2022-09-14T21:19:27.548Z,1.40
2022-09-14T21:21:56.048Z,1.40
2022-09-14T21:24:25.186Z,1.20
2022-09-14T21:26:53.540Z,1.17
2022-09-14T21:29:24.011Z,1.20
2022-09-14T21:31:52.913Z,1.30
2022-09-14T21:34:21.284Z,1.70
2022-09-14T21:36:51.412Z,1.40
2022-09-14T21:39:23.293Z,1.77
2022-09-14T21:41:58.465Z,1.58
2022-09-14T21:44:32.295Z,1.35
2022-09-14T21:47:01.720Z,1.30
2022-09-14T21:49:30.961Z,1.70
2022-09-14T21:51:59.244Z,1.50
2022-09-14T21:54:28.024Z,1.45
2022-09-14T21:56:56.270Z,1.90
2022-09-14T21:59:24.946Z,1.70
2022-09-14T22:01:53.191Z,2.00
2022-09-14T22:04:23.901Z,2.03
2022-09-14T22:06:53.099Z,1.40
2022-09-14T22:09:22.957Z,2.08
2022-09-14T22:11:50.724Z,1.40
2022-09-14T22:14:20.811Z,1.27
2022-09-14T22:16:49.450Z,1.65
2022-09-14T22:19:22.310Z,1.40
2022-09-14T22:21:51.104Z,1.60
2022-09-14T22:24:24.614Z,1.40
2022-09-14T22:26:54.125Z,1.60
2022-09-14T22:29:21.914Z,1.48
2022-09-14T22:31:50.226Z,1.77
2022-09-14T22:34:18.339Z,1.58
2022-09-14T22:36:46.244Z,2.03
2022-09-14T22:39:14.149Z,1.80
2022-09-14T22:41:42.095Z,1.90
2022-09-14T22:44:11.500Z,1.63
2022-09-14T22:46:39.664Z,1.40
2022-09-14T22:49:07.662Z,1.73
2022-09-14T22:51:35.437Z,1.80
2022-09-14T22:54:03.409Z,1.58
2022-09-14T22:56:35.315Z,1.70
2022-09-14T22:59:05.916Z,1.60
2022-09-14T23:01:36.803Z,1.50
2022-09-14T23:04:08.711Z,1.70
2022-09-14T23:06:40.911Z,1.33
2022-09-14T23:09:11.609Z,1.98
2022-09-14T23:11:39.640Z,1.63
2022-09-14T23:14:07.620Z,1.58
2022-09-14T23:16:35.453Z,1.45
2022-09-14T23:19:06.749Z,1.55
2022-09-14T23:21:36.039Z,1.80
2022-09-14T23:24:07.631Z,1.35
2022-09-14T23:26:35.402Z,1.40
2022-09-14T23:29:07.012Z,1.50
2022-09-14T23:31:35.401Z,1.70
2022-09-14T23:34:04.819Z,1.55
2022-09-14T23:36:33.156Z,1.70
2022-09-14T23:39:00.884Z,1.70
2022-09-14T23:41:29.213Z,1.77
2022-09-14T23:43:57.265Z,1.83
2022-09-14T23:46:25.491Z,2.08
2022-09-14T23:48:53.384Z,2.20
2022-09-14T23:51:21.346Z,2.20
2022-09-14T23:53:49.399Z,2.58
2022-09-14T23:56:17.391Z,2.90
2022-09-14T23:58:45.458Z,3.20
